Time;durP1;ratioP1;P1;durP2;ratioP2;P2;SDS_P1;SDS_P2;PMS_P1;PMS_P2;Temp;Humidity;BMP_temperature;BMP_pressure;BME280_temperature;BME280_humidity;BME280_pressure;Samples;Min_cycle;Max_cycle;Signal;HPM_P1;HPM_P2
2022/04/24 00:00:37;;;;;;;9.55;3.67;;;;;;;8.89;54.69;100923.38;5074769;28;20032;-46
2022/04/24 00:03:02;;;;;;;7.40;3.88;;;;;;;8.85;55.04;100920.34;5075877;28;20024;-47
2022/04/24 00:05:28;;;;;;;6.65;4.03;;;;;;;8.78;55.03;100916.97;5077978;28;20032;-47
2022/04/24 00:07:53;;;;;;;8.68;3.83;;;;;;;8.75;55.50;100914.75;5076344;28;20393;-47
2022/04/24 00:10:19;;;;;;;6.75;3.70;;;;;;;8.68;55.75;100914.06;5081547;28;20024;-48
2022/04/24 00:12:44;;;;;;;9.63;4.13;;;;;;;8.65;55.73;100915.34;5074708;28;20032;-45
2022/04/24 00:15:10;;;;;;;8.18;3.80;;;;;;;8.62;56.03;100912.34;5079982;28;20418;-46
2022/04/24 00:17:37;;;;;;;8.38;3.97;;;;;;;8.61;56.15;100913.34;5075728;28;20089;-46
2022/04/24 00:20:03;;;;;;;10.63;4.50;;;;;;;8.56;56.45;100914.06;5078948;28;20069;-46
2022/04/24 00:22:29;;;;;;;9.13;4.35;;;;;;;8.48;56.36;100909.06;5075122;28;20161;-49
2022/04/24 00:24:54;;;;;;;9.55;4.38;;;;;;;8.43;56.71;100906.25;5078640;28;20111;-46
2022/04/24 00:27:20;;;;;;;7.90;4.07;;;;;;;8.38;56.84;100908.81;5079566;28;20063;-48
2022/04/24 00:29:45;;;;;;;6.88;3.72;;;;;;;8.36;57.33;100906.38;5078064;28;20027;-46
2022/04/24 00:32:11;;;;;;;9.27;4.20;;;;;;;8.36;57.25;100902.88;5079393;28;20114;-46
2022/04/24 00:34:37;;;;;;;6.95;3.95;;;;;;;8.30;57.36;100888.56;5073381;28;20056;-46
2022/04/24 00:37:02;;;;;;;7.65;3.63;;;;;;;8.29;57.66;100891.47;5078956;28;20032;-45
2022/04/24 00:39:29;;;;;;;9.05;4.00;;;;;;;8.24;57.75;100886.78;5075452;28;20017;-50
2022/04/24 00:41:54;;;;;;;8.70;4.00;;;;;;;8.22;58.10;100891.56;5075162;28;20052;-48
2022/04/24 00:44:20;;;;;;;7.57;4.40;;;;;;;8.23;58.01;100887.84;5074927;28;20232;-46
2022/04/24 00:47:05;;;;;;;8.30;4.43;;;;;;;8.19;58.54;100886.69;5069075;28;20032;-45
2022/04/24 00:49:30;;;;;;;9.30;3.95;;;;;;;8.19;58.05;100890.16;5077249;28;20032;-46
2022/04/24 00:51:56;;;;;;;7.03;4.28;;;;;;;8.14;58.64;100887.38;5074312;28;20542;-47
2022/04/24 00:54:22;;;;;;;7.50;3.70;;;;;;;8.07;58.94;100875.97;5070205;28;20587;-48
2022/04/24 00:56:47;;;;;;;11.82;4.03;;;;;;;8.07;58.95;100875.97;5074716;28;20460;-46
2022/04/24 00:59:14;;;;;;;8.10;4.55;;;;;;;8.05;59.05;100870.03;5078213;28;20016;-49
2022/04/24 01:01:41;;;;;;;12.68;4.72;;;;;;;8.02;59.60;100872.38;5074514;28;20034;-47
2022/04/24 01:04:08;;;;;;;11.85;4.50;;;;;;;8.01;59.93;100871.56;5078146;28;20556;-47
2022/04/24 01:06:39;;;;;;;7.53;4.20;;;;;;;8.02;59.96;100867.84;5074437;28;20124;-47
2022/04/24 01:09:23;;;;;;;8.13;4.22;;;;;;;7.91;61.11;100868.63;5077062;28;20538;-45
2022/04/24 01:11:55;;;;;;;13.60;4.00;;;;;;;7.90;61.12;100864.34;5073953;28;20502;-46
2022/04/24 01:14:25;;;;;;;6.90;4.10;;;;;;;7.93;60.82;100865.75;5070978;28;20393;-50
2022/04/24 01:16:51;;;;;;;8.85;4.20;;;;;;;7.92;60.50;100858.78;5074815;28;20028;-45
2022/04/24 01:19:17;;;;;;;8.95;3.70;;;;;;;7.93;60.63;100863.88;5076752;28;20051;-45
2022/04/24 01:21:44;;;;;;;8.18;3.70;;;;;;;7.92;61.02;100853.44;5076586;28;20058;-47
2022/04/24 01:24:11;;;;;;;9.57;4.40;;;;;;;7.94;60.77;100859.34;5073915;28;21001;-46
2022/04/24 01:26:37;;;;;;;9.57;4.22;;;;;;;7.94;61.08;100857.50;5072641;28;20097;-47
2022/04/24 01:29:04;;;;;;;9.07;4.45;;;;;;;7.93;61.16;100853.22;5075324;28;20432;-46
2022/04/24 01:31:30;;;;;;;7.93;3.78;;;;;;;7.93;61.14;100858.53;5072657;28;20029;-45
2022/04/24 01:33:56;;;;;;;6.65;3.97;;;;;;;7.93;61.48;100852.41;5075910;28;20032;-47
2022/04/24 01:36:22;;;;;;;10.00;4.10;;;;;;;7.94;61.58;100852.16;5072541;28;20031;-47
2022/04/24 01:38:48;;;;;;;7.95;4.30;;;;;;;7.96;61.79;100850.09;5073511;28;20044;-48
2022/04/24 01:41:13;;;;;;;9.65;4.60;;;;;;;7.94;61.48;100854.84;5068304;28;20026;-47
2022/04/24 01:43:39;;;;;;;8.02;4.00;;;;;;;7.88;61.98;100850.38;5072274;28;20024;-46
2022/04/24 01:46:06;;;;;;;9.40;4.13;;;;;;;7.84;62.44;100850.03;5073223;28;20034;-46
2022/04/24 01:48:35;;;;;;;11.38;4.28;;;;;;;7.76;62.87;100847.72;5073080;28;20028;-47
2022/04/24 01:51:05;;;;;;;9.00;3.70;;;;;;;7.77;62.85;100848.53;5072785;28;20028;-47
2022/04/24 01:53:31;;;;;;;9.75;4.38;;;;;;;7.76;62.61;100852.22;5071994;28;20094;-48
2022/04/24 01:56:02;;;;;;;8.40;4.05;;;;;;;7.77;62.82;100846.66;5076913;28;21107;-46
2022/04/24 01:58:27;;;;;;;8.68;3.92;;;;;;;7.77;62.75;100843.19;5076158;28;20242;-46
2022/04/24 02:00:53;;;;;;;9.45;4.15;;;;;;;7.76;63.13;100846.91;5077677;28;20024;-45
2022/04/24 02:03:20;;;;;;;8.10;4.13;;;;;;;7.72;63.46;100841.19;5079240;28;20449;-47
2022/04/24 02:05:46;;;;;;;9.95;4.30;;;;;;;7.67;63.57;100841.03;5073853;28;20036;-46
2022/04/24 02:08:12;;;;;;;10.45;4.53;;;;;;;7.64;63.48;100843.34;5078452;28;20077;-47
2022/04/24 02:10:38;;;;;;;9.77;4.32;;;;;;;7.62;63.92;100845.44;5071646;28;20028;-49
2022/04/24 02:13:04;;;;;;;9.38;3.90;;;;;;;7.63;63.61;100849.72;5069573;28;20031;-46
2022/04/24 02:15:30;;;;;;;8.80;4.88;;;;;;;7.62;64.11;100842.78;5070096;28;20040;-47
2022/04/24 02:17:56;;;;;;;10.90;4.57;;;;;;;7.59;64.05;100846.72;5080178;28;20077;-46
2022/04/24 02:20:22;;;;;;;10.95;4.15;;;;;;;7.57;64.32;100843.47;5071902;28;20030;-48
2022/04/24 02:22:48;;;;;;;7.82;4.53;;;;;;;7.56;64.16;100839.97;5075340;28;20036;-48
2022/04/24 02:25:13;;;;;;;8.00;4.57;;;;;;;7.54;64.17;100843.88;5071639;28;20113;-45
2022/04/24 02:27:39;;;;;;;8.13;4.18;;;;;;;7.53;64.03;100840.41;5069777;28;20032;-48
2022/04/24 02:30:05;;;;;;;11.02;4.82;;;;;;;7.53;64.32;100837.75;5077320;28;20114;-45
2022/04/24 02:32:30;;;;;;;12.73;4.95;;;;;;;7.52;64.33;100841.44;5073972;28;20033;-48
2022/04/24 02:34:56;;;;;;;8.85;4.57;;;;;;;7.55;64.22;100842.88;5076641;28;20024;-45
2022/04/24 02:37:22;;;;;;;8.15;4.65;;;;;;;7.57;64.06;100836.28;5070537;28;20776;-48
2022/04/24 02:39:48;;;;;;;10.15;4.95;;;;;;;7.61;63.90;100838.47;5075642;28;20062;-44
2022/04/24 02:42:13;;;;;;;9.80;5.20;;;;;;;7.58;64.30;100832.56;5071858;28;20066;-45
2022/04/24 02:44:39;;;;;;;10.70;5.07;;;;;;;7.58;64.14;100837.91;5075290;28;20031;-46
2022/04/24 02:47:05;;;;;;;8.77;4.70;;;;;;;7.55;64.29;100827.69;5075874;28;20039;-46
2022/04/24 02:49:31;;;;;;;10.93;4.80;;;;;;;7.57;64.02;100824.78;5074118;28;20394;-46
2022/04/24 02:51:56;;;;;;;10.32;4.80;;;;;;;7.58;64.27;100823.75;5073231;28;20137;-47
2022/04/24 02:54:22;;;;;;;10.15;5.38;;;;;;;7.59;64.16;100830.72;5073512;28;20035;-45
2022/04/24 02:56:47;;;;;;;9.20;5.32;;;;;;;7.58;64.62;100831.75;5072907;28;20024;-46
2022/04/24 02:59:15;;;;;;;12.57;5.97;;;;;;;7.56;64.25;100817.84;5077432;28;20034;-45
2022/04/24 03:01:41;;;;;;;8.10;4.93;;;;;;;7.55;64.83;100821.53;5071823;28;20723;-47
2022/04/24 03:04:06;;;;;;;10.43;6.10;;;;;;;7.49;64.50;100825.09;5076776;28;20097;-45
2022/04/24 03:06:32;;;;;;;8.57;5.20;;;;;;;7.48;64.55;100818.94;5071196;28;20063;-46
2022/04/24 03:08:58;;;;;;;14.00;5.88;;;;;;;7.46;64.68;100818.38;5074172;28;20133;-45
2022/04/24 03:11:23;;;;;;;8.98;5.30;;;;;;;7.46;64.64;100815.69;5076791;28;20488;-46
2022/04/24 03:13:49;;;;;;;10.05;5.53;;;;;;;7.49;64.77;100817.09;5073779;28;20427;-46
2022/04/24 03:16:14;;;;;;;12.45;5.78;;;;;;;7.50;64.45;100819.53;5070969;28;20035;-47
2022/04/24 03:18:40;;;;;;;10.98;6.13;;;;;;;7.49;64.84;100814.44;5069239;28;20028;-47
2022/04/24 03:21:06;;;;;;;12.15;5.88;;;;;;;7.48;65.08;100812.81;5073393;28;20103;-47
2022/04/24 03:23:31;;;;;;;10.45;5.75;;;;;;;7.50;64.76;100803.53;5072278;28;20491;-46
2022/04/24 03:25:57;;;;;;;11.32;5.82;;;;;;;7.49;65.09;100803.78;5075976;28;20412;-47
2022/04/24 03:28:23;;;;;;;11.52;6.28;;;;;;;7.49;64.85;100804.56;5069440;28;20032;-47
2022/04/24 03:30:48;;;;;;;9.80;5.70;;;;;;;7.47;64.80;100804.00;5072212;28;20027;-45
2022/04/24 03:33:14;;;;;;;10.05;6.00;;;;;;;7.45;65.00;100794.59;5077099;28;20028;-46
2022/04/24 03:35:39;;;;;;;12.32;6.85;;;;;;;7.45;64.90;100799.94;5074794;28;20481;-46
2022/04/24 03:38:06;;;;;;;10.45;5.53;;;;;;;7.46;64.88;100799.69;5078635;28;20466;-46
2022/04/24 03:40:32;;;;;;;11.40;5.97;;;;;;;7.42;65.46;100803.88;5078163;28;20515;-46
2022/04/24 03:42:57;;;;;;;9.70;6.38;;;;;;;7.39;65.22;100796.31;5072495;28;20036;-45
2022/04/24 03:45:23;;;;;;;7.57;5.72;;;;;;;7.36;65.27;100799.44;5077896;28;20173;-47
2022/04/24 03:47:48;;;;;;;12.02;5.63;;;;;;;7.33;65.41;100794.53;5080226;28;20047;-45
2022/04/24 03:50:14;;;;;;;10.68;6.32;;;;;;;7.34;65.87;100792.69;5082521;28;20107;-47
2022/04/24 03:52:40;;;;;;;11.85;7.18;;;;;;;7.33;65.59;100793.72;5073359;28;20036;-47
2022/04/24 03:55:06;;;;;;;11.43;6.07;;;;;;;7.33;65.83;100794.53;5081968;28;20527;-46
2022/04/24 03:57:33;;;;;;;12.05;6.35;;;;;;;7.34;65.66;100790.84;5076436;28;20030;-47
2022/04/24 03:59:59;;;;;;;11.98;6.78;;;;;;;7.35;65.59;100784.47;5077004;28;20505;-45
2022/04/24 04:02:25;;;;;;;10.48;6.15;;;;;;;7.33;65.78;100781.22;5075217;28;20044;-45
2022/04/24 04:04:51;;;;;;;9.98;6.25;;;;;;;7.33;66.16;100777.75;5079429;28;20036;-44
2022/04/24 04:07:17;;;;;;;8.82;5.95;;;;;;;7.33;66.18;100786.53;5078402;28;20025;-45
2022/04/24 04:09:42;;;;;;;14.88;5.82;;;;;;;7.34;65.77;100779.38;5076954;28;20425;-44
2022/04/24 04:12:08;;;;;;;9.27;6.00;;;;;;;7.35;65.67;100776.47;5078074;28;20099;-45
2022/04/24 04:14:34;;;;;;;11.15;7.40;;;;;;;7.35;65.78;100773.81;5076991;28;20056;-45
2022/04/24 04:17:00;;;;;;;13.70;6.95;;;;;;;7.29;66.36;100782.72;5074892;28;20562;-44
2022/04/24 04:19:25;;;;;;;13.23;6.43;;;;;;;7.28;66.02;100779.22;5081389;28;20024;-44
2022/04/24 04:21:51;;;;;;;10.27;6.25;;;;;;;7.33;65.96;100773.22;5080929;28;20020;-45
2022/04/24 04:24:17;;;;;;;12.88;6.68;;;;;;;7.34;66.19;100779.38;5080188;28;20464;-45
2022/04/24 04:26:44;;;;;;;11.93;6.60;;;;;;;7.32;66.28;100776.94;5079265;28;20046;-45
2022/04/24 04:29:10;;;;;;;11.35;6.78;;;;;;;7.32;66.30;100786.78;5078242;28;20032;-45
2022/04/24 04:31:35;;;;;;;14.52;6.80;;;;;;;7.35;66.22;100779.13;5082073;28;20595;-45
2022/04/24 04:34:01;;;;;;;12.68;6.22;;;;;;;7.39;66.57;100783.00;5075178;28;20020;-45
2022/04/24 04:36:26;;;;;;;18.23;7.18;;;;;;;7.39;66.39;100780.34;5078264;28;20032;-45
2022/04/24 04:38:52;;;;;;;13.23;6.72;;;;;;;7.36;66.61;100783.47;5078169;28;20212;-45
2022/04/24 04:41:17;;;;;;;13.25;7.32;;;;;;;7.37;66.83;100781.59;5082413;28;20024;-45
2022/04/24 04:43:43;;;;;;;12.45;7.00;;;;;;;7.36;66.74;100787.94;5076030;28;20032;-44
2022/04/24 04:46:09;;;;;;;13.88;6.10;;;;;;;7.37;66.79;100786.94;5080277;28;20035;-44
2022/04/24 04:48:34;;;;;;;11.80;7.45;;;;;;;7.41;66.45;100791.59;5077468;28;20040;-46
2022/04/24 04:51:00;;;;;;;10.40;5.97;;;;;;;7.45;66.46;100798.06;5082825;28;20023;-45
2022/04/24 04:53:25;;;;;;;12.75;7.30;;;;;;;7.52;66.25;100800.66;5078016;28;20077;-45
2022/04/24 04:55:51;;;;;;;12.63;7.25;;;;;;;7.56;66.33;100796.50;5077192;28;20024;-46
2022/04/24 04:58:17;;;;;;;11.85;6.97;;;;;;;7.60;66.26;100795.00;5077109;28;20038;-45
2022/04/24 05:00:42;;;;;;;14.20;7.25;;;;;;;7.61;66.42;100791.28;5078941;28;20422;-45
2022/04/24 05:03:08;;;;;;;11.32;6.68;;;;;;;7.64;66.58;100796.16;5074615;28;20706;-45
2022/04/24 05:05:34;;;;;;;10.25;6.45;;;;;;;7.66;66.22;100787.94;5071605;28;20035;-46
2022/04/24 05:07:59;;;;;;;12.55;6.70;;;;;;;7.69;66.40;100790.16;5078206;28;20031;-45
2022/04/24 05:10:24;;;;;;;13.00;6.55;;;;;;;7.69;66.67;100790.97;5076634;28;20378;-45
2022/04/24 05:12:50;;;;;;;10.90;6.82;;;;;;;7.68;66.58;100793.84;5075127;28;20032;-46
2022/04/24 05:15:16;;;;;;;11.15;6.85;;;;;;;7.67;66.80;100795.72;5076442;28;20095;-46
2022/04/24 05:17:44;;;;;;;11.73;6.90;;;;;;;7.71;67.11;100791.53;5075378;28;20028;-45
2022/04/24 05:20:11;;;;;;;14.43;7.35;;;;;;;7.72;66.93;100800.34;5075406;28;20023;-45
2022/04/24 05:22:38;;;;;;;12.65;7.07;;;;;;;7.72;66.73;100797.69;5080904;28;20027;-45
2022/04/24 05:25:05;;;;;;;11.05;6.95;;;;;;;7.73;67.08;100788.69;5078537;28;20370;-45
2022/04/24 05:27:31;;;;;;;10.80;6.32;;;;;;;7.76;67.26;100797.03;5077809;28;20463;-45
2022/04/24 05:29:58;;;;;;;11.63;6.50;;;;;;;7.79;67.24;100801.09;5078028;28;20024;-46
2022/04/24 05:32:23;;;;;;;13.63;6.82;;;;;;;7.79;67.08;100799.22;5079465;28;20035;-45
2022/04/24 05:34:49;;;;;;;12.18;6.95;;;;;;;7.84;67.40;100799.34;5075157;28;20438;-45
2022/04/24 05:37:14;;;;;;;13.90;7.40;;;;;;;7.89;67.16;100798.66;5076001;28;20498;-44
2022/04/24 05:39:40;;;;;;;11.73;7.43;;;;;;;7.93;67.28;100799.03;5076212;28;20159;-46
2022/04/24 05:42:06;;;;;;;12.45;7.25;;;;;;;8.01;67.15;100798.69;5078491;28;20035;-44
2022/04/24 05:44:31;;;;;;;12.55;7.78;;;;;;;8.11;66.99;100791.75;5075400;28;20462;-44
2022/04/24 05:46:57;;;;;;;11.18;7.55;;;;;;;8.17;66.69;100795.34;5079616;28;20140;-46
2022/04/24 05:49:22;;;;;;;11.27;6.90;;;;;;;8.24;66.50;100798.72;5078365;28;20082;-46
2022/04/24 05:51:48;;;;;;;12.38;7.82;;;;;;;8.27;66.35;100805.47;5075423;28;20028;-45
2022/04/24 05:54:15;;;;;;;15.43;8.15;;;;;;;8.27;66.40;100800.13;5080007;28;20023;-45
2022/04/24 05:56:41;;;;;;;17.83;7.40;;;;;;;8.29;66.82;100801.53;5074074;28;20583;-45
2022/04/24 05:59:08;;;;;;;12.13;7.47;;;;;;;8.32;66.47;100798.38;5076471;28;20024;-45
2022/04/24 06:01:34;;;;;;;11.32;6.72;;;;;;;8.38;66.32;100802.00;5074583;28;20039;-45
2022/04/24 06:04:00;;;;;;;9.50;6.75;;;;;;;8.41;66.54;100801.53;5078929;28;20107;-45
2022/04/24 06:06:25;;;;;;;15.95;7.95;;;;;;;8.41;66.13;100804.22;5073339;28;20449;-46
2022/04/24 06:08:51;;;;;;;21.45;8.05;;;;;;;8.41;66.03;100796.19;5072253;28;20733;-46
2022/04/24 06:11:18;;;;;;;11.75;7.10;;;;;;;8.44;65.78;100793.91;5075762;28;20032;-46
2022/04/24 06:13:45;;;;;;;11.55;6.45;;;;;;;8.51;66.00;100800.97;5076846;28;20032;-44
2022/04/24 06:16:11;;;;;;;16.30;8.45;;;;;;;8.58;65.54;100798.97;5071675;28;20508;-45
2022/04/24 06:18:36;;;;;;;9.50;6.68;;;;;;;8.67;65.54;100809.09;5074822;28;20032;-46
2022/04/24 06:21:02;;;;;;;14.07;7.85;;;;;;;8.75;65.86;100806.06;5076526;28;20066;-44
2022/04/24 06:23:30;;;;;;;14.82;9.48;;;;;;;8.86;65.71;100808.94;5071218;28;20021;-46
2022/04/24 06:25:55;;;;;;;14.63;7.97;;;;;;;8.90;65.29;100810.91;5072581;28;20028;-44
2022/04/24 06:28:21;;;;;;;11.27;7.30;;;;;;;8.93;65.57;100806.94;5073419;28;20120;-45
2022/04/24 06:30:47;;;;;;;15.30;8.07;;;;;;;8.97;65.49;100803.56;5076874;28;20028;-45
2022/04/24 06:33:14;;;;;;;12.18;7.68;;;;;;;9.04;65.15;100808.81;5079336;28;20077;-45
2022/04/24 06:35:40;;;;;;;12.40;7.70;;;;;;;9.11;65.26;100798.78;5075029;28;20028;-45
2022/04/24 06:38:06;;;;;;;12.98;7.88;;;;;;;9.21;65.30;100800.84;5072175;28;20024;-46
2022/04/24 06:40:32;;;;;;;13.40;7.40;;;;;;;9.26;65.09;100799.06;5076175;28;20024;-46
2022/04/24 06:43:04;;;;;;;14.45;7.60;;;;;;;9.34;64.66;100797.91;5073281;28;20033;-46
2022/04/24 06:45:41;;;;;;;10.30;7.25;;;;;;;9.50;64.60;100786.41;5075442;28;20423;-45
2022/04/24 06:48:09;;;;;;;12.32;7.55;;;;;;;9.72;64.38;100796.44;5074102;28;20460;-45
2022/04/24 06:50:37;;;;;;;11.80;7.88;;;;;;;9.84;64.06;100794.50;5070092;28;20051;-45
2022/04/24 06:53:05;;;;;;;17.05;7.55;;;;;;;9.92;63.82;100794.13;5073806;28;20029;-45
2022/04/24 06:55:33;;;;;;;11.13;7.25;;;;;;;9.98;63.28;100795.81;5073387;28;20119;-45
2022/04/24 06:57:59;;;;;;;9.82;6.30;;;;;;;10.01;63.53;100789.97;5073031;28;20028;-45
2022/04/24 07:00:27;;;;;;;12.20;7.50;;;;;;;10.04;63.06;100788.66;5073754;28;20448;-45
2022/04/24 07:02:53;;;;;;;10.88;6.70;;;;;;;10.04;62.96;100786.00;5077119;28;20031;-45
2022/04/24 07:05:23;;;;;;;9.15;6.60;;;;;;;10.07;62.84;100783.66;5072388;28;20470;-45
2022/04/24 07:07:49;;;;;;;9.23;6.35;;;;;;;10.13;62.68;100779.19;5073586;28;20036;-46
2022/04/24 07:10:15;;;;;;;9.57;6.32;;;;;;;10.15;62.29;100791.28;5077931;28;20024;-45
2022/04/24 07:12:51;;;;;;;10.35;6.35;;;;;;;10.14;62.34;100783.50;5080708;28;20032;-45
2022/04/24 07:15:19;;;;;;;11.70;6.57;;;;;;;10.20;62.15;100785.19;5080561;28;20432;-45
2022/04/24 07:17:45;;;;;;;10.60;6.28;;;;;;;10.22;61.71;100778.56;5079729;28;20390;-44
2022/04/24 07:20:13;;;;;;;9.50;6.35;;;;;;;10.32;61.55;100780.59;5083236;28;20021;-44
2022/04/24 07:22:45;;;;;;;10.55;6.22;;;;;;;10.49;61.58;100775.22;5079288;28;20024;-45
2022/04/24 07:25:16;;;;;;;9.00;6.07;;;;;;;10.69;61.28;100770.13;5077041;28;20119;-45
2022/04/24 07:27:42;;;;;;;10.35;6.15;;;;;;;10.87;61.12;100772.50;5079503;28;20024;-45
2022/04/24 07:30:13;;;;;;;9.00;5.68;;;;;;;11.01;60.63;100767.59;5077231;28;20051;-45
2022/04/24 07:32:55;;;;;;;9.98;5.80;;;;;;;11.10;60.73;100766.06;5078258;28;20078;-44
2022/04/24 07:35:26;;;;;;;10.10;5.95;;;;;;;11.34;60.47;100765.81;5076262;28;20366;-45
2022/04/24 07:37:52;;;;;;;11.90;5.78;;;;;;;11.50;60.26;100760.34;5079141;28;20031;-46
2022/04/24 07:40:20;;;;;;;8.50;5.68;;;;;;;11.57;59.55;100762.81;5079028;28;20031;-45
2022/04/24 07:42:47;;;;;;;8.43;5.25;;;;;;;11.59;59.47;100760.69;5083764;28;20118;-45
2022/04/24 07:45:23;;;;;;;8.75;5.20;;;;;;;11.58;59.36;100759.06;5078527;28;20485;-45
2022/04/24 07:47:51;;;;;;;7.15;4.75;;;;;;;11.68;58.84;100755.69;5081715;28;20070;-45
2022/04/24 07:50:18;;;;;;;7.72;4.72;;;;;;;11.77;58.75;100754.94;5082808;28;20073;-45
2022/04/24 07:52:44;;;;;;;6.65;4.47;;;;;;;11.97;58.39;100753.50;5080931;28;20118;-46
2022/04/24 07:55:11;;;;;;;6.25;4.68;;;;;;;12.17;57.88;100748.28;5083907;28;20476;-45
2022/04/24 07:57:39;;;;;;;8.15;4.70;;;;;;;12.38;57.52;100751.91;5082146;28;20077;-45
2022/04/24 08:00:06;;;;;;;8.40;4.50;;;;;;;12.57;57.21;100739.69;5078959;28;20231;-46
2022/04/24 08:02:31;;;;;;;9.55;4.60;;;;;;;12.73;57.06;100735.16;5082752;28;20039;-47
2022/04/24 08:04:57;;;;;;;8.27;4.78;;;;;;;12.89;56.67;100739.53;5083015;28;20025;-45
2022/04/24 08:07:22;;;;;;;7.25;4.43;;;;;;;13.03;56.34;100739.84;5085638;28;20115;-45
2022/04/24 08:09:49;;;;;;;5.75;4.13;;;;;;;13.16;55.89;100738.56;5079623;28;20031;-46
2022/04/24 08:12:17;;;;;;;6.30;4.07;;;;;;;13.29;55.87;100738.91;5082193;28;20025;-45
2022/04/24 08:14:43;;;;;;;7.05;5.20;;;;;;;13.48;55.43;100735.69;5076982;28;20097;-48
2022/04/24 08:17:08;;;;;;;14.45;7.03;;;;;;;13.59;55.24;100724.66;5084708;28;20057;-45
2022/04/24 08:19:34;;;;;;;12.38;5.97;;;;;;;13.70;54.88;100721.97;5081009;28;20115;-45
2022/04/24 08:21:59;;;;;;;14.95;6.00;;;;;;;13.82;54.46;100726.03;5081781;28;20504;-44
2022/04/24 08:24:25;;;;;;;8.18;4.68;;;;;;;13.94;54.05;100723.03;5076864;28;20168;-45
2022/04/24 08:26:51;;;;;;;6.82;4.53;;;;;;;14.02;53.61;100719.81;5081730;28;20094;-45
2022/04/24 08:29:16;;;;;;;7.28;4.47;;;;;;;14.12;53.39;100713.59;5080460;28;20454;-44
2022/04/24 08:31:42;;;;;;;6.75;4.10;;;;;;;14.19;53.16;100711.44;5082487;28;20055;-45
2022/04/24 08:34:07;;;;;;;7.55;4.38;;;;;;;14.30;53.06;100709.50;5079506;28;20037;-45
2022/04/24 08:36:33;;;;;;;7.88;4.00;;;;;;;14.42;52.80;100708.13;5077339;28;20390;-45
2022/04/24 08:38:58;;;;;;;12.38;4.00;;;;;;;14.54;52.49;100707.03;5079544;28;20038;-45
2022/04/24 08:41:26;;;;;;;7.40;3.75;;;;;;;14.67;52.04;100707.25;5074255;28;20089;-45
2022/04/24 08:43:55;;;;;;;8.57;4.15;;;;;;;14.77;51.68;100707.22;5075361;28;20031;-45
2022/04/24 08:46:23;;;;;;;5.10;3.75;;;;;;;14.89;50.64;100706.06;5078664;28;20076;-45
2022/04/24 08:48:49;;;;;;;8.15;3.83;;;;;;;14.97;50.47;100700.09;5079630;28;20028;-47
2022/04/24 08:51:16;;;;;;;7.82;4.10;;;;;;;15.08;50.08;100696.25;5079439;28;20030;-46
2022/04/24 08:53:42;;;;;;;7.80;4.20;;;;;;;15.16;49.78;100695.69;5076343;28;20034;-45
2022/04/24 08:56:08;;;;;;;5.50;3.58;;;;;;;15.28;49.78;100698.84;5077545;28;20024;-44
2022/04/24 08:58:33;;;;;;;6.30;4.13;;;;;;;15.42;49.52;100699.00;5075065;28;20439;-45
2022/04/24 09:00:59;;;;;;;10.30;3.78;;;;;;;15.54;49.49;100695.94;5079873;28;20016;-44
2022/04/24 09:03:25;;;;;;;5.18;4.25;;;;;;;15.70;49.21;100692.06;5076135;28;20061;-44
2022/04/24 09:05:50;;;;;;;5.93;3.80;;;;;;;15.81;48.71;100696.31;5073442;28;20579;-45
2022/04/24 09:08:16;;;;;;;5.53;3.05;;;;;;;15.90;48.14;100686.47;5074487;28;20019;-46
2022/04/24 09:10:55;;;;;;;7.15;3.20;;;;;;;16.01;47.47;100685.31;5074209;28;20505;-45
2022/04/24 09:16:20;;;;;;;7.63;3.13;;;;;;;16.36;47.09;100675.19;5078158;28;20035;-45
2022/04/24 09:18:48;;;;;;;4.85;3.20;;;;;;;16.49;46.48;100677.19;5081017;28;20024;-45
2022/04/24 09:21:14;;;;;;;4.72;2.60;;;;;;;16.60;46.02;100684.09;5071974;28;20538;-44
2022/04/24 09:23:43;;;;;;;9.77;2.80;;;;;;;16.71;45.59;100681.31;5080344;28;20032;-45
2022/04/24 09:26:16;;;;;;;8.02;2.90;;;;;;;16.78;44.70;100684.44;5081359;28;20032;-45
2022/04/24 09:28:42;;;;;;;5.00;3.08;;;;;;;16.92;44.76;100677.22;5083087;28;20035;-45
2022/04/24 09:31:09;;;;;;;6.35;3.10;;;;;;;17.04;44.35;100677.56;5078521;28;20551;-45
2022/04/24 09:33:39;;;;;;;4.70;2.97;;;;;;;17.14;44.51;100679.34;5075571;28;20140;-44
2022/04/24 09:36:06;;;;;;;6.25;4.20;;;;;;;17.26;43.61;100676.19;5078762;28;20948;-44
2022/04/24 09:38:39;;;;;;;8.05;2.92;;;;;;;17.30;43.34;100675.31;5077420;28;20441;-44
2022/04/24 09:41:20;;;;;;;4.00;2.10;;;;;;;17.38;42.91;100677.34;5075128;28;20028;-45
2022/04/24 09:43:46;;;;;;;3.63;2.00;;;;;;;17.49;42.78;100672.56;5077943;28;20196;-44
2022/04/24 09:46:12;;;;;;;4.95;2.10;;;;;;;17.51;42.12;100671.19;5082990;28;20051;-45
2022/04/24 09:48:37;;;;;;;5.80;3.00;;;;;;;17.48;42.26;100669.06;5077600;28;20036;-45
2022/04/24 09:51:03;;;;;;;5.15;2.25;;;;;;;17.46;42.24;100678.59;5072203;28;20043;-45
2022/04/24 09:53:29;;;;;;;3.22;2.30;;;;;;;17.55;41.24;100673.28;5073823;28;20055;-45
2022/04/24 09:55:58;;;;;;;4.25;2.20;;;;;;;17.58;41.21;100672.69;5074718;28;20021;-45
2022/04/24 09:58:25;;;;;;;2.72;2.20;;;;;;;17.60;41.28;100671.31;5077301;28;20031;-45
2022/04/24 10:00:51;;;;;;;4.82;2.17;;;;;;;17.68;41.28;100673.38;5076176;28;20023;-45
2022/04/24 10:03:20;;;;;;;3.75;2.65;;;;;;;17.74;41.03;100680.28;5079171;28;20029;-45
2022/04/24 10:05:47;;;;;;;4.22;2.65;;;;;;;17.81;41.00;100680.72;5070991;28;20142;-44
2022/04/24 10:08:15;;;;;;;5.70;2.30;;;;;;;17.86;40.74;100674.41;5077426;28;20028;-44
2022/04/24 10:10:41;;;;;;;3.10;2.00;;;;;;;17.91;40.57;100671.59;5076714;28;20733;-44
2022/04/24 10:13:09;;;;;;;2.83;2.20;;;;;;;18.04;40.48;100676.25;5079105;28;20048;-45
2022/04/24 10:15:39;;;;;;;4.20;2.30;;;;;;;18.10;39.39;100668.81;5074432;28;20027;-45
2022/04/24 10:18:25;;;;;;;5.38;2.70;;;;;;;18.04;38.61;100675.44;5075163;28;20035;-46
2022/04/24 10:21:22;;;;;;;4.32;2.38;;;;;;;17.97;39.00;100675.84;5075134;28;20032;-44
2022/04/24 10:23:48;;;;;;;5.22;2.55;;;;;;;18.15;39.95;100667.94;5074645;28;20029;-45
2022/04/24 10:26:23;;;;;;;3.28;2.60;;;;;;;18.21;39.34;100669.44;5072089;28;20081;-45
2022/04/24 10:28:49;;;;;;;;;;;;;;;18.20;38.24;100657.78;5075557;28;20398;-45
2022/04/24 10:31:16;;;;;;;5.60;2.60;;;;;;;18.41;39.37;100653.56;5074128;28;19915;-45
2022/04/24 10:33:52;;;;;;;3.78;2.50;;;;;;;18.45;38.65;100655.66;5071252;28;20189;-45
2022/04/24 10:36:18;;;;;;;6.90;2.72;;;;;;;18.62;39.22;100655.84;5071441;28;20028;-45
2022/04/24 10:38:57;;;;;;;6.20;3.03;;;;;;;18.66;37.94;100654.16;5073561;28;20122;-45
2022/04/24 10:41:24;;;;;;;3.58;2.47;;;;;;;18.75;38.62;100657.78;5073298;28;20039;-46
2022/04/24 10:44:08;;;;;;;5.75;2.80;;;;;;;18.80;38.20;100652.22;5075761;28;20568;-45
2022/04/24 10:46:38;;;;;;;4.82;2.95;;;;;;;18.90;37.64;100648.50;5082757;28;20086;-46
2022/04/24 10:49:09;;;;;;;6.82;2.63;;;;;;;18.98;37.59;100639.59;5077741;28;20029;-45
2022/04/24 10:51:36;;;;;;;8.70;3.85;;;;;;;19.02;37.85;100646.03;5080206;28;20537;-45
2022/04/24 10:54:08;;;;;;;5.38;2.90;;;;;;;19.01;37.58;100647.13;5079361;28;20036;-44
2022/04/24 10:56:36;;;;;;;6.32;3.80;;;;;;;19.10;37.42;100639.06;5078816;28;20031;-45
2022/04/24 10:59:16;;;;;;;15.13;8.85;;;;;;;19.10;36.63;100636.38;5074828;28;20059;-45
2022/04/24 11:01:53;;;;;;;22.38;13.63;;;;;;;19.14;36.48;100637.34;5079582;28;20020;-45
2022/04/24 11:04:20;;;;;;;24.70;12.65;;;;;;;19.25;36.54;100630.56;5079018;28;20028;-45
2022/04/24 11:06:56;;;;;;;64.25;32.70;;;;;;;19.28;34.93;100647.06;5079381;28;20106;-45
2022/04/24 11:09:23;;;;;;;50.78;31.60;;;;;;;19.32;35.88;100633.66;5077132;28;20020;-46
2022/04/24 11:11:56;;;;;;;25.17;15.43;;;;;;;19.39;35.72;100635.91;5077196;28;20606;-44
2022/04/24 11:14:25;;;;;;;18.35;11.43;;;;;;;19.41;35.46;100623.66;5079576;28;20024;-45
2022/04/24 11:16:52;;;;;;;7.60;4.53;;;;;;;19.51;35.20;100617.94;5074734;28;20080;-45
2022/04/24 11:19:28;;;;;;;5.15;2.97;;;;;;;19.63;34.85;100622.06;5079511;28;20038;-44
2022/04/24 11:22:00;;;;;;;4.63;2.55;;;;;;;19.77;34.71;100620.06;5079439;28;20037;-45
2022/04/24 11:24:28;;;;;;;3.22;2.40;;;;;;;19.86;34.81;100627.13;5081176;28;20032;-46
2022/04/24 11:26:54;;;;;;;3.78;2.40;;;;;;;19.92;34.20;100617.69;5078808;28;20032;-45
2022/04/24 11:29:20;;;;;;;6.60;2.42;;;;;;;20.02;34.33;100613.09;5079731;28;20033;-45